createdAt,value
2018-09-07T00:00:20.069Z,38.20
2018-09-07T00:02:48.464Z,33.87
2018-09-07T00:05:16.928Z,33.90
2018-09-07T00:07:58.646Z,38.90
2018-09-07T00:10:32.528Z,37.57
2018-09-07T00:13:00.936Z,36.57
2018-09-07T00:15:29.435Z,34.87
2018-09-07T00:17:58.003Z,38.10
2018-09-07T00:20:26.379Z,33.53
2018-09-07T00:22:55.105Z,34.10
2018-09-07T00:25:26.346Z,38.57
2018-09-07T00:27:54.753Z,36.87
2018-09-07T00:30:23.158Z,34.80
2018-09-07T00:32:51.588Z,36.40
2018-09-07T00:35:25.994Z,35.47
2018-09-07T00:37:54.439Z,39.00
2018-09-07T00:40:22.813Z,37.17
2018-09-07T00:42:51.243Z,36.70
2018-09-07T00:45:21.633Z,34.97
2018-09-07T00:47:59.488Z,36.53
2018-09-07T00:50:28.401Z,38.80
2018-09-07T00:52:56.802Z,42.50
2018-09-07T00:55:25.148Z,33.87
2018-09-07T00:57:53.511Z,37.50
2018-09-07T01:00:23.799Z,38.40
2018-09-07T01:02:52.209Z,32.97
2018-09-07T01:05:21.491Z,33.17
2018-09-07T01:07:51.254Z,34.07
2018-09-07T01:10:19.654Z,35.20
2018-09-07T01:12:47.983Z,36.50
2018-09-07T01:15:16.393Z,35.37
2018-09-07T01:17:44.696Z,39.97
2018-09-07T01:20:13.076Z,37.90
2018-09-07T01:22:41.460Z,35.10
2018-09-07T01:25:09.810Z,41.10
2018-09-07T01:27:38.167Z,38.27
2018-09-07T01:30:06.727Z,37.87
2018-09-07T01:32:35.145Z,42.00
2018-09-07T01:35:03.522Z,35.23
2018-09-07T01:37:37.160Z,34.63
2018-09-07T01:40:05.553Z,35.93
2018-09-07T01:42:33.883Z,37.57
2018-09-07T01:45:02.246Z,40.10
2018-09-07T01:47:31.588Z,40.60
2018-09-07T01:49:59.954Z,42.77
2018-09-07T01:52:28.337Z,42.00
2018-09-07T01:54:56.666Z,37.33
2018-09-07T01:57:25.705Z,44.30
2018-09-07T02:00:10.335Z,41.90
2018-09-07T02:02:40.060Z,43.10
2018-09-07T02:05:08.492Z,42.60
2018-09-07T02:07:36.906Z,39.43
2018-09-07T02:10:11.294Z,36.80
2018-09-07T02:12:39.818Z,35.77
2018-09-07T02:15:08.201Z,40.07
2018-09-07T02:17:36.613Z,39.63
2018-09-07T02:20:05.970Z,36.93
2018-09-07T02:22:34.359Z,35.53
2018-09-07T02:25:02.645Z,30.50
2018-09-07T02:27:31.316Z,35.77
2018-09-07T02:29:59.598Z,32.83
2018-09-07T02:32:28.096Z,34.93
2018-09-07T02:34:56.607Z,37.10
2018-09-07T02:37:25.171Z,39.73
2018-09-07T02:39:54.722Z,37.60
2018-09-07T02:42:23.090Z,35.90
2018-09-07T02:44:51.443Z,38.83
2018-09-07T02:47:19.842Z,42.67
2018-09-07T02:49:48.248Z,41.30
2018-09-07T02:52:16.647Z,40.67
2018-09-07T02:54:45.052Z,38.07
2018-09-07T02:57:13.460Z,43.80
2018-09-07T02:59:41.886Z,35.13
2018-09-07T03:02:12.350Z,43.27
2018-09-07T03:04:40.620Z,40.03
2018-09-07T03:07:08.947Z,39.67
2018-09-07T03:09:37.219Z,42.03
2018-09-07T03:12:05.547Z,40.97
2018-09-07T03:14:33.790Z,44.50
2018-09-07T03:17:02.313Z,35.77
2018-09-07T03:19:30.659Z,36.20
2018-09-07T03:21:59.054Z,38.30
2018-09-07T03:24:27.460Z,40.40
2018-09-07T03:26:55.862Z,41.03
2018-09-07T03:29:24.263Z,37.57
2018-09-07T03:31:55.599Z,41.80
2018-09-07T03:34:23.870Z,39.90
2018-09-07T03:36:52.127Z,38.43
2018-09-07T03:39:20.411Z,38.13
2018-09-07T03:41:48.684Z,36.50
2018-09-07T03:44:16.957Z,40.27
2018-09-07T03:46:45.243Z,42.90
2018-09-07T03:49:13.725Z,43.80
2018-09-07T03:51:42.049Z,38.13
2018-09-07T03:54:13.306Z,47.73
2018-09-07T03:56:42.035Z,38.20
2018-09-07T03:59:11.168Z,36.10
2018-09-07T04:01:58.066Z,38.43
2018-09-07T04:04:26.367Z,38.67
2018-09-07T04:06:54.654Z,46.20
2018-09-07T04:09:23.902Z,33.70
2018-09-07T04:12:04.084Z,36.30
2018-09-07T04:14:32.338Z,36.93
2018-09-07T04:17:00.901Z,39.57
2018-09-07T04:19:29.154Z,36.57
2018-09-07T04:21:57.432Z,37.17
2018-09-07T04:24:25.696Z,39.27
2018-09-07T04:26:53.951Z,32.60
2018-09-07T04:29:22.204Z,41.20
2018-09-07T04:31:50.478Z,34.80
2018-09-07T04:34:18.810Z,37.53
2018-09-07T04:36:47.082Z,42.30
2018-09-07T04:39:15.357Z,41.40
2018-09-07T04:41:43.611Z,35.67
2018-09-07T04:44:11.884Z,37.60
2018-09-07T04:46:40.138Z,36.80
2018-09-07T04:49:08.419Z,34.27
2018-09-07T04:51:36.682Z,39.03
2018-09-07T04:54:04.950Z,41.23
2018-09-07T04:56:33.356Z,38.90
2018-09-07T04:59:01.663Z,35.90
2018-09-07T05:01:29.922Z,36.97
2018-09-07T05:03:58.319Z,37.90
2018-09-07T05:06:26.575Z,49.13
2018-09-07T05:08:54.859Z,38.40
2018-09-07T05:11:23.215Z,39.50
2018-09-07T05:13:51.498Z,36.93
2018-09-07T05:16:19.790Z,43.90
2018-09-07T05:18:48.134Z,42.83
2018-09-07T05:21:17.191Z,40.40
2018-09-07T05:23:45.522Z,36.63
2018-09-07T05:26:13.793Z,45.03
2018-09-07T05:28:42.072Z,41.33
2018-09-07T05:31:10.605Z,36.50
2018-09-07T05:33:39.976Z,37.10
2018-09-07T05:36:08.264Z,32.10
2018-09-07T05:38:36.742Z,28.80
2018-09-07T05:41:05.056Z,27.97
2018-09-07T05:43:33.330Z,28.20
2018-09-07T05:46:01.647Z,28.87
2018-09-07T05:48:29.919Z,31.10
2018-09-07T05:50:58.202Z,27.00
2018-09-07T05:53:26.475Z,35.73
2018-09-07T05:55:54.775Z,33.33
2018-09-07T05:58:23.027Z,30.93
2018-09-07T06:00:51.322Z,29.97
2018-09-07T06:03:19.775Z,30.10
2018-09-07T06:05:48.058Z,29.63
2018-09-07T06:08:16.338Z,30.00
2018-09-07T06:10:44.619Z,21.27
2018-09-07T06:13:12.900Z,26.07
2018-09-07T06:15:42.268Z,26.93
2018-09-07T06:18:11.213Z,25.83
2018-09-07T06:20:39.560Z,24.50
2018-09-07T06:23:08.024Z,21.07
2018-09-07T06:25:36.430Z,23.77
2018-09-07T06:28:04.696Z,22.90
2018-09-07T06:30:33.094Z,21.37
2018-09-07T06:33:01.479Z,19.40
2018-09-07T06:35:29.743Z,19.77
2018-09-07T06:37:58.012Z,19.70
2018-09-07T06:40:26.365Z,20.57
2018-09-07T06:42:54.590Z,16.67
2018-09-07T06:45:22.913Z,19.73
2018-09-07T06:47:51.171Z,14.60
2018-09-07T06:50:19.448Z,18.60
2018-09-07T06:52:47.723Z,21.47
2018-09-07T06:55:15.990Z,19.47
2018-09-07T06:57:44.252Z,19.50
2018-09-07T07:00:12.573Z,23.03
2018-09-07T07:02:40.956Z,23.67
2018-09-07T07:05:09.113Z,22.97
2018-09-07T07:07:37.392Z,20.50
2018-09-07T07:10:05.663Z,18.90
2018-09-07T07:12:33.949Z,23.33
2018-09-07T07:15:02.215Z,20.50
2018-09-07T07:17:30.479Z,18.00
2018-09-07T07:19:58.754Z,26.53
2018-09-07T07:22:27.032Z,18.63
2018-09-07T07:24:55.282Z,20.70
2018-09-07T07:27:23.541Z,18.43
2018-09-07T07:29:51.811Z,18.97
2018-09-07T07:32:20.075Z,15.50
2018-09-07T07:34:48.371Z,18.80
2018-09-07T07:37:16.718Z,14.83
2018-09-07T07:39:44.947Z,17.60
2018-09-07T07:42:13.264Z,17.00
2018-09-07T07:44:41.558Z,17.10
2018-09-07T07:47:10.003Z,22.83
2018-09-07T07:49:38.260Z,18.03
2018-09-07T07:52:06.714Z,21.67
2018-09-07T07:54:34.990Z,24.10
2018-09-07T07:57:03.368Z,17.90
2018-09-07T07:59:31.569Z,20.60
2018-09-07T08:01:59.852Z,20.70
2018-09-07T08:04:28.132Z,21.10
2018-09-07T08:06:56.433Z,15.77
2018-09-07T08:09:24.711Z,18.10
2018-09-07T08:11:52.973Z,21.50
2018-09-07T08:14:21.240Z,18.20
2018-09-07T08:16:49.502Z,18.33
2018-09-07T08:19:17.762Z,19.10
2018-09-07T08:21:46.067Z,18.90
2018-09-07T08:24:14.369Z,18.03
2018-09-07T08:26:42.708Z,15.87
2018-09-07T08:29:10.962Z,16.80
2018-09-07T08:31:39.249Z,19.73
2018-09-07T08:34:07.550Z,15.00
2018-09-07T08:36:35.859Z,13.20
2018-09-07T08:39:05.183Z,15.63
2018-09-07T08:41:33.555Z,17.73
2018-09-07T08:44:01.863Z,15.50
2018-09-07T08:46:30.134Z,13.57
2018-09-07T08:48:58.403Z,15.10
2018-09-07T08:51:26.657Z,15.80
2018-09-07T08:53:55.153Z,11.50
2018-09-07T08:56:23.427Z,10.90
2018-09-07T08:58:51.710Z,14.70
2018-09-07T09:01:20.034Z,12.90
2018-09-07T09:03:48.279Z,12.77
2018-09-07T09:06:16.548Z,12.27
2018-09-07T09:08:44.856Z,11.50
2018-09-07T09:11:13.118Z,10.60
2018-09-07T09:13:41.398Z,12.97
2018-09-07T09:16:09.685Z,12.10
2018-09-07T09:18:37.984Z,12.90
2018-09-07T09:21:06.251Z,9.47
2018-09-07T09:23:34.690Z,14.20
2018-09-07T09:26:02.862Z,12.30
2018-09-07T09:28:31.170Z,10.77
2018-09-07T09:30:59.491Z,11.00
2018-09-07T09:33:27.759Z,13.73
2018-09-07T09:35:56.038Z,11.93
2018-09-07T09:38:24.306Z,10.77
2018-09-07T09:40:59.065Z,11.97
2018-09-07T09:43:27.321Z,12.87
2018-09-07T09:45:55.609Z,11.87
2018-09-07T09:48:23.918Z,15.47
2018-09-07T09:50:52.233Z,11.43
2018-09-07T09:53:20.507Z,12.17
2018-09-07T09:55:48.788Z,10.10
2018-09-07T09:58:17.122Z,10.97
2018-09-07T10:00:50.734Z,8.43
2018-09-07T10:03:25.038Z,9.10
2018-09-07T10:05:53.578Z,10.60
2018-09-07T10:08:21.881Z,9.10
2018-09-07T10:10:50.195Z,11.00
2018-09-07T10:13:18.454Z,9.50
2018-09-07T10:15:46.715Z,9.03
2018-09-07T10:18:14.975Z,10.50
2018-09-07T10:20:43.226Z,10.13
2018-09-07T10:23:11.531Z,9.20
2018-09-07T10:25:39.837Z,9.30
2018-09-07T10:28:08.140Z,8.00
2018-09-07T10:30:36.413Z,13.77
2018-09-07T10:33:04.744Z,10.97
2018-09-07T10:35:33.058Z,11.73
2018-09-07T10:38:01.323Z,10.67
2018-09-07T10:40:29.606Z,10.33
2018-09-07T10:43:05.647Z,9.03
2018-09-07T10:45:33.974Z,10.40
2018-09-07T10:48:02.263Z,8.07
2018-09-07T10:50:30.560Z,13.20
2018-09-07T10:52:58.876Z,10.97
2018-09-07T10:55:27.092Z,8.97
2018-09-07T10:57:55.363Z,9.77
2018-09-07T11:00:23.653Z,10.63
2018-09-07T11:02:51.927Z,11.67
2018-09-07T11:05:20.262Z,8.23
2018-09-07T11:07:48.607Z,10.70
2018-09-07T11:10:16.890Z,6.27
2018-09-07T11:12:45.186Z,5.90
2018-09-07T11:15:13.465Z,7.57
2018-09-07T11:17:41.736Z,7.40
2018-09-07T11:20:10.031Z,6.93
2018-09-07T11:22:38.317Z,7.20
2018-09-07T11:25:06.637Z,7.07
2018-09-07T11:27:35.163Z,6.80
2018-09-07T11:30:03.438Z,6.17
2018-09-07T11:32:32.744Z,8.47
2018-09-07T11:35:01.019Z,6.13
2018-09-07T11:37:29.308Z,5.50
2018-09-07T11:39:57.586Z,5.00
2018-09-07T11:42:25.894Z,5.93
2018-09-07T11:44:54.163Z,4.77
2018-09-07T11:47:22.456Z,5.30
2018-09-07T11:49:50.735Z,4.90
2018-09-07T11:52:19.002Z,5.03
2018-09-07T11:54:47.341Z,4.10
2018-09-07T11:57:15.586Z,5.07
2018-09-07T11:59:43.846Z,4.60
2018-09-07T12:02:12.196Z,5.10
2018-09-07T12:04:40.588Z,5.60
2018-09-07T12:07:08.714Z,4.63
2018-09-07T12:09:36.978Z,5.23
2018-09-07T12:12:05.317Z,5.87
2018-09-07T12:14:33.587Z,5.00
2018-09-07T12:17:01.903Z,8.60
2018-09-07T12:19:30.177Z,5.67
2018-09-07T12:21:58.489Z,6.00
2018-09-07T12:24:26.761Z,4.80
2018-09-07T12:26:55.611Z,5.77
2018-09-07T12:29:23.991Z,5.73
2018-09-07T12:31:53.060Z,5.67
2018-09-07T12:34:21.579Z,6.10
2018-09-07T12:36:49.856Z,6.77
2018-09-07T12:39:18.210Z,5.33
2018-09-07T12:41:46.551Z,5.23
2018-09-07T12:44:14.869Z,4.83
2018-09-07T12:46:43.771Z,8.37
2018-09-07T12:49:12.108Z,6.20
2018-09-07T12:51:40.444Z,7.30
2018-09-07T12:54:08.825Z,5.57
2018-09-07T12:56:37.109Z,5.40
2018-09-07T12:59:05.423Z,6.33
2018-09-07T13:01:33.750Z,6.37
2018-09-07T13:04:02.016Z,4.60
2018-09-07T13:06:33.106Z,4.70
2018-09-07T13:09:01.445Z,5.33
2018-09-07T13:11:29.827Z,5.80
2018-09-07T13:13:58.264Z,6.73
2018-09-07T13:16:26.610Z,6.63
2018-09-07T13:18:54.931Z,7.03
2018-09-07T13:21:23.323Z,6.90
2018-09-07T13:23:51.727Z,6.90
2018-09-07T13:26:20.120Z,6.30
2018-09-07T13:28:50.483Z,7.00
2018-09-07T13:31:18.856Z,6.83
2018-09-07T13:33:47.262Z,7.27
2018-09-07T13:36:15.645Z,7.97
2018-09-07T13:38:44.030Z,7.70
2018-09-07T13:41:12.487Z,8.80
2018-09-07T13:43:40.866Z,6.67
2018-09-07T13:46:09.285Z,7.30
2018-09-07T13:48:37.718Z,5.93
2018-09-07T13:51:06.110Z,5.47
2018-09-07T13:53:34.534Z,4.30
2018-09-07T13:56:03.023Z,4.70
2018-09-07T13:58:31.419Z,4.00
2018-09-07T14:00:59.829Z,4.90
2018-09-07T14:03:28.218Z,6.20
2018-09-07T14:05:56.726Z,3.67
2018-09-07T14:08:25.148Z,5.33
2018-09-07T14:10:53.555Z,4.00
2018-09-07T14:13:21.970Z,6.37
2018-09-07T14:15:50.440Z,4.40
2018-09-07T14:18:18.753Z,4.23
2018-09-07T14:20:47.170Z,4.27
2018-09-07T14:23:16.545Z,4.10
2018-09-07T14:25:44.830Z,8.50
2018-09-07T14:28:13.139Z,5.73
2018-09-07T14:30:41.726Z,4.03
2018-09-07T14:33:16.335Z,4.00
2018-09-07T14:35:44.623Z,4.20
2018-09-07T14:38:19.126Z,11.70
2018-09-07T14:40:47.629Z,5.30
2018-09-07T14:43:15.904Z,10.33
2018-09-07T14:45:44.198Z,5.53
2018-09-07T14:48:12.550Z,4.90
2018-09-07T14:50:41.882Z,4.90
2018-09-07T14:53:10.180Z,6.70
2018-09-07T14:55:39.458Z,5.67
2018-09-07T14:58:07.778Z,5.03
2018-09-07T15:00:36.219Z,5.47
2018-09-07T15:03:04.519Z,6.37
2018-09-07T15:05:32.874Z,5.10
2018-09-07T15:08:01.128Z,6.47
2018-09-07T15:10:29.406Z,5.77
2018-09-07T15:12:57.971Z,7.83
2018-09-07T15:15:26.259Z,7.43
2018-09-07T15:17:54.614Z,8.07
2018-09-07T15:20:22.931Z,6.83
2018-09-07T15:22:51.226Z,8.07
2018-09-07T15:25:19.602Z,9.60
2018-09-07T15:27:47.921Z,7.53
2018-09-07T15:30:16.237Z,10.00
2018-09-07T15:32:44.546Z,7.13
2018-09-07T15:35:12.857Z,8.60
2018-09-07T15:37:41.140Z,6.83
2018-09-07T15:40:09.451Z,7.87
2018-09-07T15:42:37.880Z,6.33
2018-09-07T15:45:06.338Z,6.30
2018-09-07T15:47:34.630Z,11.40
2018-09-07T15:50:02.882Z,8.67
2018-09-07T15:52:31.162Z,8.83
2018-09-07T15:54:59.450Z,6.97
2018-09-07T15:57:27.739Z,6.77
2018-09-07T15:59:56.023Z,6.27
2018-09-07T16:02:24.292Z,5.97
2018-09-07T16:04:52.671Z,6.57
2018-09-07T16:07:20.913Z,8.23
2018-09-07T16:09:49.163Z,6.23
2018-09-07T16:12:17.411Z,8.33
2018-09-07T16:14:45.722Z,11.50
2018-09-07T16:17:14.061Z,9.17
2018-09-07T16:19:42.363Z,7.90
2018-09-07T16:22:10.778Z,10.47
2018-09-07T16:24:39.069Z,7.50
2018-09-07T16:27:07.323Z,8.13
2018-09-07T16:29:35.641Z,16.17
2018-09-07T16:32:03.931Z,10.40
2018-09-07T16:34:32.242Z,12.03
2018-09-07T16:37:00.487Z,9.80
2018-09-07T16:39:28.739Z,8.80
2018-09-07T16:41:57.031Z,11.70
2018-09-07T16:44:25.292Z,8.90
2018-09-07T16:46:53.555Z,12.00
2018-09-07T16:49:21.806Z,10.30
2018-09-07T16:51:50.074Z,8.90
2018-09-07T16:54:18.360Z,8.77
2018-09-07T16:56:46.657Z,9.03
2018-09-07T16:59:14.901Z,10.00
2018-09-07T17:01:43.301Z,12.50
2018-09-07T17:04:11.624Z,14.00
2018-09-07T17:06:40.012Z,15.47
2018-09-07T17:09:08.589Z,11.13
2018-09-07T17:11:36.982Z,10.60
2018-09-07T17:14:05.358Z,11.47
2018-09-07T17:16:33.766Z,12.70
2018-09-07T17:19:02.153Z,14.00
2018-09-07T17:21:30.526Z,10.20
2018-09-07T17:23:58.948Z,13.53
2018-09-07T17:26:27.334Z,10.37
2018-09-07T17:28:55.719Z,10.93
2018-09-07T17:31:24.075Z,15.93
2018-09-07T17:33:52.402Z,12.60
2018-09-07T17:36:20.869Z,11.80
2018-09-07T17:38:49.441Z,14.37
2018-09-07T17:41:17.850Z,11.43
2018-09-07T17:43:46.162Z,10.73
2018-09-07T17:46:14.574Z,16.23
2018-09-07T17:48:42.945Z,10.80
2018-09-07T17:51:11.326Z,12.03
2018-09-07T17:53:39.879Z,13.40
2018-09-07T17:56:08.338Z,12.20
2018-09-07T17:58:36.770Z,10.47
2018-09-07T18:01:05.092Z,12.10
2018-09-07T18:03:33.479Z,14.87
2018-09-07T18:06:03.244Z,10.83
2018-09-07T18:08:31.645Z,12.80
2018-09-07T18:11:00.022Z,13.50
2018-09-07T18:13:28.386Z,13.10
2018-09-07T18:15:56.706Z,14.20
2018-09-07T18:18:25.067Z,17.80
2018-09-07T18:20:53.458Z,11.50
2018-09-07T18:23:21.795Z,13.20
2018-09-07T18:25:50.178Z,13.47
2018-09-07T18:28:18.579Z,14.63
2018-09-07T18:30:46.986Z,17.33
2018-09-07T18:33:15.383Z,14.73
2018-09-07T18:35:44.111Z,12.97
2018-09-07T18:38:12.175Z,13.33
2018-09-07T18:40:40.986Z,16.40
2018-09-07T18:43:09.415Z,14.30
2018-09-07T18:45:37.809Z,19.03
2018-09-07T18:48:06.215Z,13.47
2018-09-07T18:50:34.609Z,14.53
2018-09-07T18:53:02.954Z,15.97
2018-09-07T18:55:31.342Z,18.53
2018-09-07T18:57:59.796Z,13.60
2018-09-07T19:00:28.106Z,21.93
2018-09-07T19:02:56.462Z,14.23
2018-09-07T19:05:24.830Z,15.30
2018-09-07T19:07:53.235Z,14.03
2018-09-07T19:10:22.415Z,14.27
2018-09-07T19:12:50.714Z,12.60
2018-09-07T19:15:19.053Z,11.97
2018-09-07T19:17:47.438Z,22.27
2018-09-07T19:20:15.784Z,26.37
2018-09-07T19:22:44.135Z,14.30
2018-09-07T19:25:12.572Z,15.20
2018-09-07T19:27:40.912Z,16.23
2018-09-07T19:30:09.515Z,16.70
2018-09-07T19:32:37.849Z,12.43
2018-09-07T19:35:06.276Z,12.70
2018-09-07T19:37:34.631Z,18.70
2018-09-07T19:40:03.038Z,13.57
2018-09-07T19:42:31.421Z,16.63
2018-09-07T19:44:59.823Z,13.87
2018-09-07T19:47:28.164Z,15.47
2018-09-07T19:49:56.527Z,13.13
2018-09-07T19:52:24.878Z,12.43
2018-09-07T19:54:53.226Z,12.43
2018-09-07T19:57:21.638Z,14.97
2018-09-07T19:59:49.967Z,11.37
2018-09-07T20:02:18.353Z,13.90
2018-09-07T20:04:46.726Z,17.90
2018-09-07T20:07:15.099Z,10.40
2018-09-07T20:09:43.467Z,12.10
2018-09-07T20:12:11.873Z,20.00
2018-09-07T20:14:40.281Z,9.83
2018-09-07T20:17:08.644Z,18.70
2018-09-07T20:19:36.993Z,13.10
2018-09-07T20:22:07.809Z,11.20
2018-09-07T20:24:36.197Z,10.17
2018-09-07T20:27:04.630Z,9.57
2018-09-07T20:29:32.983Z,20.93
2018-09-07T20:32:01.377Z,11.23
2018-09-07T20:34:29.759Z,10.77
2018-09-07T20:36:58.174Z,10.10
2018-09-07T20:39:26.571Z,10.23
2018-09-07T20:41:54.939Z,9.50
2018-09-07T20:44:23.303Z,15.80
2018-09-07T20:46:51.633Z,13.83
2018-09-07T20:49:19.918Z,11.70
2018-09-07T20:51:48.534Z,11.23
2018-09-07T20:54:23.246Z,10.67
2018-09-07T20:56:51.509Z,11.67
2018-09-07T20:59:19.778Z,17.33
2018-09-07T21:01:48.061Z,10.50
2018-09-07T21:04:16.358Z,12.93
2018-09-07T21:06:44.613Z,10.43
2018-09-07T21:09:12.888Z,17.30
2018-09-07T21:11:41.151Z,12.00
2018-09-07T21:14:09.428Z,13.03
2018-09-07T21:16:37.685Z,10.80
2018-09-07T21:19:06.028Z,14.03
2018-09-07T21:21:34.295Z,13.20
2018-09-07T21:24:02.614Z,14.20
2018-09-07T21:26:30.933Z,11.87
2018-09-07T21:28:59.228Z,11.60
2018-09-07T21:31:27.487Z,16.17
2018-09-07T21:33:55.747Z,9.83
2018-09-07T21:36:24.009Z,11.93
2018-09-07T21:38:52.283Z,11.47
2018-09-07T21:41:27.144Z,12.80
2018-09-07T21:43:55.317Z,21.67
2018-09-07T21:46:23.591Z,10.03
2018-09-07T21:48:51.853Z,9.63
2018-09-07T21:51:20.155Z,13.30
2018-09-07T21:53:48.441Z,13.17
2018-09-07T21:56:16.722Z,11.87
2018-09-07T21:58:44.997Z,9.13
2018-09-07T22:01:14.339Z,10.23
2018-09-07T22:03:43.569Z,8.00
2018-09-07T22:06:11.834Z,10.40
2018-09-07T22:08:40.153Z,14.03
2018-09-07T22:11:09.026Z,15.43
2018-09-07T22:13:37.234Z,13.63
2018-09-07T22:16:05.586Z,9.97
2018-09-07T22:18:34.060Z,11.93
2018-09-07T22:21:02.239Z,11.20
2018-09-07T22:23:30.522Z,13.50
2018-09-07T22:25:58.788Z,19.67
2018-09-07T22:28:27.173Z,13.10
2018-09-07T22:30:55.525Z,13.83
2018-09-07T22:33:23.904Z,13.07
2018-09-07T22:35:52.274Z,10.40
2018-09-07T22:38:20.677Z,16.10
2018-09-07T22:40:49.051Z,13.10
2018-09-07T22:43:17.454Z,12.30
2018-09-07T22:45:45.842Z,11.30
2018-09-07T22:48:14.231Z,10.00
2018-09-07T22:50:42.639Z,10.93
2018-09-07T22:53:11.045Z,11.80
2018-09-07T22:55:39.437Z,10.10
2018-09-07T22:58:07.802Z,16.87
2018-09-07T23:00:36.318Z,10.73
2018-09-07T23:03:04.666Z,11.70
2018-09-07T23:05:33.035Z,10.37
2018-09-07T23:08:01.393Z,12.27
2018-09-07T23:10:30.762Z,11.20
2018-09-07T23:12:59.173Z,9.80
2018-09-07T23:15:27.675Z,11.50
2018-09-07T23:17:56.119Z,10.90
2018-09-07T23:20:24.680Z,12.87
2018-09-07T23:22:53.089Z,9.20
2018-09-07T23:25:21.388Z,8.83
2018-09-07T23:27:49.686Z,13.03
2018-09-07T23:30:18.100Z,8.87
2018-09-07T23:32:46.513Z,8.20
2018-09-07T23:35:14.897Z,9.03
2018-09-07T23:37:43.242Z,10.77
2018-09-07T23:40:11.615Z,11.60
2018-09-07T23:42:40.003Z,11.40
2018-09-07T23:45:08.392Z,13.53
2018-09-07T23:47:36.787Z,9.30
2018-09-07T23:50:06.110Z,9.80
2018-09-07T23:52:34.409Z,10.00
2018-09-07T23:55:02.682Z,13.50
2018-09-07T23:57:31.048Z,8.93
2018-09-07T23:59:59.381Z,19.83
